Time;durP1;ratioP1;P1;durP2;ratioP2;P2;SDS_P1;SDS_P2;PMS_P1;PMS_P2;Temp;Humidity;BMP_temperature;BMP_pressure;BME280_temperature;BME280_humidity;BME280_pressure;Samples;Min_cycle;Max_cycle;Signal;HPM_P1;HPM_P2
2021/07/09 00:01:09;;;;;;;3.03;2.38;;;22.70;61.90;;;;;;4985141;28;20291;-82
2021/07/09 00:03:35;;;;;;;3.88;2.78;;;22.70;62.00;;;;;;4985253;28;20030;-82
2021/07/09 00:06:02;;;;;;;3.78;2.92;;;22.60;62.00;;;;;;4977674;28;20537;-78
2021/07/09 00:08:27;;;;;;;3.70;2.92;;;22.60;62.00;;;;;;4994748;28;20077;-79
2021/07/09 00:10:53;;;;;;;3.83;2.78;;;22.60;62.10;;;;;;4979195;28;20034;-81
2021/07/09 00:13:19;;;;;;;3.00;2.38;;;22.60;62.10;;;;;;4980083;28;20034;-81
2021/07/09 00:15:45;;;;;;;3.58;2.60;;;22.60;62.10;;;;;;4996609;28;20065;-81
2021/07/09 00:18:10;;;;;;;3.50;2.53;;;22.50;62.10;;;;;;4994953;28;20397;-81
2021/07/09 00:20:36;;;;;;;3.00;2.55;;;22.50;62.10;;;;;;4978634;28;20058;-81
2021/07/09 00:23:03;;;;;;;3.80;2.70;;;22.50;62.10;;;;;;4994844;28;20027;-81
2021/07/09 00:25:28;;;;;;;3.67;2.97;;;22.60;62.20;;;;;;4994903;28;20081;-82
2021/07/09 00:27:54;;;;;;;3.67;2.70;;;22.50;62.20;;;;;;4994351;28;20085;-82
2021/07/09 00:30:20;;;;;;;3.42;2.67;;;22.50;62.30;;;;;;4994360;28;20498;-81
2021/07/09 00:32:46;;;;;;;4.30;3.35;;;22.50;62.30;;;;;;4994487;28;20031;-81
2021/07/09 00:35:13;;;;;;;3.85;2.60;;;22.50;62.40;;;;;;4994133;28;20085;-81
2021/07/09 00:37:38;;;;;;;3.58;2.70;;;22.40;62.30;;;;;;4977892;28;20458;-81
2021/07/09 00:40:05;;;;;;;2.88;2.50;;;22.40;62.40;;;;;;4978165;28;20085;-80
2021/07/09 00:42:31;;;;;;;3.50;2.80;;;22.40;62.40;;;;;;4978221;28;20466;-82
2021/07/09 00:44:57;;;;;;;3.83;3.10;;;22.40;62.40;;;;;;4993712;28;20041;-82
2021/07/09 00:47:22;;;;;;;3.75;2.95;;;22.40;62.50;;;;;;4978041;28;20027;-81
2021/07/09 00:49:49;;;;;;;3.83;2.95;;;22.40;62.50;;;;;;4994556;28;20038;-80
2021/07/09 00:52:16;;;;;;;3.83;2.90;;;22.40;62.50;;;;;;4994127;28;20034;-81
2021/07/09 00:54:42;;;;;;;3.63;2.83;;;22.40;62.50;;;;;;4977055;28;20491;-82
2021/07/09 00:57:09;;;;;;;3.83;3.03;;;22.30;62.50;;;;;;4978498;28;20035;-80
2021/07/09 00:59:36;;;;;;;4.68;3.15;;;22.30;62.50;;;;;;4977424;28;20047;-81
2021/07/09 01:02:02;;;;;;;4.72;3.30;;;22.30;62.60;;;;;;4977982;28;20398;-81
2021/07/09 01:04:28;;;;;;;3.95;3.25;;;22.30;62.60;;;;;;4961560;28;20038;-81
2021/07/09 01:06:54;;;;;;;3.63;2.78;;;22.30;62.60;;;;;;4977881;28;20474;-81
2021/07/09 01:09:20;;;;;;;4.45;3.10;;;22.30;62.60;;;;;;4977689;28;20038;-81
2021/07/09 01:11:50;;;;;;;4.32;3.22;;;22.30;62.70;;;;;;4977692;28;20031;-81
2021/07/09 01:14:20;;;;;;;4.15;3.15;;;22.20;62.60;;;;;;4977680;28;20061;-81
2021/07/09 01:16:47;;;;;;;4.40;3.40;;;22.20;62.60;;;;;;4994931;28;20462;-81
2021/07/09 01:19:17;;;;;;;3.92;3.10;;;22.20;62.60;;;;;;4978030;28;20524;-83
2021/07/09 01:21:44;;;;;;;3.47;2.72;;;22.10;62.60;;;;;;4978082;28;20027;-81
2021/07/09 01:24:11;;;;;;;3.55;2.97;;;22.20;62.70;;;;;;4977529;28;20022;-82
2021/07/09 01:26:39;;;;;;;3.55;2.90;;;22.10;62.70;;;;;;4978110;28;20061;-81
2021/07/09 01:29:05;;;;;;;4.75;3.67;;;22.10;62.70;;;;;;4977139;28;20066;-81
2021/07/09 01:31:32;;;;;;;4.78;3.45;;;22.10;62.70;;;;;;4961345;28;20043;-83
2021/07/09 01:33:59;;;;;;;4.85;3.17;;;22.10;62.70;;;;;;4977378;28;20049;-82
2021/07/09 01:36:24;;;;;;;4.75;3.50;;;22.10;62.70;;;;;;4961046;28;20027;-81
2021/07/09 01:38:51;;;;;;;4.53;3.35;;;22.10;62.70;;;;;;4961259;28;20030;-81
2021/07/09 01:41:20;;;;;;;4.25;3.38;;;22.00;62.70;;;;;;4994763;28;20125;-83
2021/07/09 01:43:47;;;;;;;4.30;3.45;;;22.00;62.80;;;;;;4993347;28;20037;-81
2021/07/09 01:46:12;;;;;;;4.82;3.47;;;22.00;62.80;;;;;;4961803;28;20038;-81
2021/07/09 01:48:39;;;;;;;4.47;3.30;;;22.00;62.80;;;;;;4977034;28;20041;-82
2021/07/09 01:51:05;;;;;;;4.45;3.47;;;21.90;62.80;;;;;;4977199;28;20045;-82
2021/07/09 01:53:31;;;;;;;4.45;3.67;;;21.90;62.80;;;;;;4977175;28;20035;-82
2021/07/09 01:55:57;;;;;;;5.18;3.50;;;21.90;62.90;;;;;;4976971;28;20037;-81
2021/07/09 01:58:23;;;;;;;5.25;3.85;;;21.90;62.90;;;;;;4977096;28;20436;-81
2021/07/09 02:00:49;;;;;;;5.47;4.00;;;21.90;62.90;;;;;;4977126;28;20054;-82
2021/07/09 02:03:15;;;;;;;5.30;4.30;;;21.80;62.90;;;;;;4977082;28;20066;-81
2021/07/09 02:05:41;;;;;;;4.97;3.67;;;21.80;62.90;;;;;;4994354;28;20393;-81
2021/07/09 02:08:06;;;;;;;4.85;3.75;;;21.80;63.00;;;;;;4981618;28;20027;-81
2021/07/09 02:10:37;;;;;;;4.78;3.67;;;21.80;63.00;;;;;;4997900;28;20113;-83
2021/07/09 02:13:04;;;;;;;4.85;3.58;;;21.70;63.00;;;;;;4980306;28;20034;-81
2021/07/09 02:15:34;;;;;;;4.90;3.63;;;21.70;63.00;;;;;;4964952;28;20038;-81
2021/07/09 02:17:59;;;;;;;5.18;3.38;;;21.70;63.10;;;;;;4998045;28;20042;-81
2021/07/09 02:20:27;;;;;;;5.65;3.80;;;21.70;63.10;;;;;;4996985;28;20030;-81
2021/07/09 02:22:58;;;;;;;5.32;3.85;;;21.70;63.10;;;;;;4981340;28;20097;-81
2021/07/09 02:25:24;;;;;;;5.25;3.83;;;21.60;63.20;;;;;;4997041;28;20466;-81
2021/07/09 02:27:52;;;;;;;5.32;3.90;;;21.60;63.20;;;;;;4980401;28;20034;-82
2021/07/09 02:30:18;;;;;;;4.78;3.72;;;21.60;63.30;;;;;;4964440;28;20042;-81
2021/07/09 02:32:45;;;;;;;5.13;3.92;;;21.60;63.20;;;;;;4996268;28;20030;-81
2021/07/09 02:35:14;;;;;;;5.15;4.10;;;21.50;63.10;;;;;;4980975;28;20035;-81
2021/07/09 02:37:42;;;;;;;5.13;3.70;;;21.50;63.20;;;;;;4980124;28;20022;-82
2021/07/09 02:40:12;;;;;;;5.32;3.97;;;21.50;63.30;;;;;;4964315;28;20455;-82
2021/07/09 02:42:38;;;;;;;5.47;4.07;;;21.50;63.30;;;;;;4980720;28;20039;-82
2021/07/09 02:45:05;;;;;;;6.00;4.30;;;21.50;63.30;;;;;;4980199;28;20037;-81
2021/07/09 02:47:31;;;;;;;4.50;3.50;;;21.40;63.30;;;;;;4980209;28;20030;-81
2021/07/09 02:49:57;;;;;;;5.28;4.10;;;21.40;63.30;;;;;;4996469;28;20129;-80
2021/07/09 02:52:22;;;;;;;5.65;4.10;;;21.40;63.40;;;;;;4980042;28;20034;-81
2021/07/09 02:54:48;;;;;;;4.80;3.70;;;21.40;63.40;;;;;;4979661;28;20041;-81
2021/07/09 02:57:14;;;;;;;4.72;3.60;;;21.40;63.40;;;;;;4979869;28;20085;-81
2021/07/09 02:59:39;;;;;;;5.32;4.15;;;21.40;63.50;;;;;;4996946;28;20050;-85
2021/07/09 03:02:05;;;;;;;5.45;4.20;;;21.40;63.50;;;;;;4995779;28;20034;-81
2021/07/09 03:04:31;;;;;;;5.38;4.45;;;21.30;63.40;;;;;;4963702;28;20038;-81
2021/07/09 03:06:57;;;;;;;4.93;3.58;;;21.30;63.50;;;;;;4996570;28;20035;-81
2021/07/09 03:09:22;;;;;;;5.57;4.10;;;21.30;63.50;;;;;;4963660;28;20038;-82
2021/07/09 03:11:48;;;;;;;5.47;3.78;;;21.30;63.60;;;;;;4963693;28;20045;-83
2021/07/09 03:14:14;;;;;;;5.50;3.83;;;21.30;63.60;;;;;;4963426;28;20058;-81
2021/07/09 03:16:40;;;;;;;5.85;4.28;;;21.20;63.50;;;;;;4978946;28;20035;-82
2021/07/09 03:19:07;;;;;;;5.10;3.55;;;21.20;63.70;;;;;;4996154;28;20109;-81
2021/07/09 03:21:36;;;;;;;6.85;4.18;;;21.20;63.60;;;;;;4979326;28;20382;-81
2021/07/09 03:24:03;;;;;;;5.22;4.10;;;21.20;63.70;;;;;;4963641;28;20031;-81
2021/07/09 03:26:29;;;;;;;5.22;3.97;;;21.10;63.70;;;;;;4963306;28;20167;-81
2021/07/09 03:28:57;;;;;;;5.90;3.95;;;21.20;63.70;;;;;;4979595;28;20502;-81
2021/07/09 03:31:25;;;;;;;4.97;3.88;;;21.10;63.80;;;;;;4979500;28;20038;-80
2021/07/09 03:33:50;;;;;;;6.18;4.15;;;21.10;63.80;;;;;;4995319;28;20038;-81
2021/07/09 03:36:16;;;;;;;5.10;3.92;;;21.10;63.80;;;;;;4963145;28;20081;-80
2021/07/09 03:38:42;;;;;;;5.15;3.92;;;21.00;63.80;;;;;;4996667;28;20038;-81
2021/07/09 03:41:08;;;;;;;5.07;3.97;;;21.00;64.40;;;;;;4979180;28;20039;-81
2021/07/09 03:43:33;;;;;;;5.57;4.10;;;21.00;63.90;;;;;;4979020;28;20416;-82
2021/07/09 03:45:59;;;;;;;5.43;4.00;;;21.00;63.90;;;;;;4978956;28;20042;-81
2021/07/09 03:48:25;;;;;;;5.60;4.20;;;21.00;63.90;;;;;;4995751;28;20468;-80
2021/07/09 03:50:50;;;;;;;5.10;3.67;;;21.00;63.90;;;;;;4962706;28;20497;-82
2021/07/09 03:53:16;;;;;;;5.20;3.90;;;20.90;64.50;;;;;;4995316;28;20042;-81
2021/07/09 03:55:42;;;;;;;5.93;3.92;;;20.90;63.90;;;;;;4978541;28;20037;-81
2021/07/09 03:58:08;;;;;;;4.63;3.53;;;20.90;63.90;;;;;;4978816;28;20039;-81
2021/07/09 04:00:33;;;;;;;5.35;3.78;;;20.90;64.00;;;;;;4995011;28;20054;-83
2021/07/09 04:02:59;;;;;;;4.88;3.78;;;20.80;63.90;;;;;;4978446;28;20406;-81
2021/07/09 04:05:25;;;;;;;4.90;3.80;;;20.90;64.00;;;;;;4963086;28;20463;-81
2021/07/09 04:07:51;;;;;;;5.72;4.22;;;20.80;64.00;;;;;;4962395;28;20038;-81
2021/07/09 04:10:17;;;;;;;4.68;3.60;;;20.80;64.10;;;;;;4979151;28;20038;-83
2021/07/09 04:12:43;;;;;;;4.80;3.60;;;20.80;64.10;;;;;;4995936;28;20038;-81
2021/07/09 04:15:09;;;;;;;5.50;4.05;;;20.80;64.70;;;;;;4995549;28;20362;-81
2021/07/09 04:17:35;;;;;;;5.57;3.65;;;20.70;64.10;;;;;;4995999;28;20050;-80
2021/07/09 04:20:01;;;;;;;4.78;3.65;;;20.80;64.20;;;;;;4978461;28;20038;-82
2021/07/09 04:22:28;;;;;;;5.70;3.90;;;20.70;64.10;;;;;;4978526;28;20045;-81
2021/07/09 04:24:53;;;;;;;5.10;3.75;;;20.70;64.10;;;;;;4978540;28;20035;-81
2021/07/09 04:27:19;;;;;;;4.93;3.40;;;20.70;64.20;;;;;;4996208;28;20108;-80
2021/07/09 04:29:45;;;;;;;4.72;3.55;;;20.70;64.20;;;;;;4960927;28;20031;-81
2021/07/09 04:32:10;;;;;;;6.00;3.60;;;20.70;64.30;;;;;;4962648;28;20360;-81
2021/07/09 04:34:36;;;;;;;5.15;3.88;;;20.60;64.20;;;;;;4978000;28;20072;-81
2021/07/09 04:37:08;;;;;;;5.40;4.05;;;20.60;65.00;;;;;;4977666;28;20129;-81
2021/07/09 04:39:35;;;;;;;5.50;4.32;;;20.60;64.30;;;;;;4994994;28;20463;-82
2021/07/09 04:42:00;;;;;;;4.70;3.40;;;20.60;64.30;;;;;;4995379;28;20158;-82
2021/07/09 04:44:26;;;;;;;5.18;3.83;;;20.60;64.30;;;;;;4995501;28;20168;-80
2021/07/09 04:46:52;;;;;;;5.25;3.85;;;20.50;64.30;;;;;;4961823;28;20367;-79
2021/07/09 04:49:17;;;;;;;5.63;4.15;;;20.50;64.30;;;;;;4977702;28;20038;-79
2021/07/09 04:51:43;;;;;;;5.30;3.90;;;20.50;65.00;;;;;;4978033;28;20038;-83
2021/07/09 04:54:09;;;;;;;4.55;3.30;;;20.50;64.40;;;;;;4993788;28;20097;-81
2021/07/09 04:56:34;;;;;;;5.72;4.35;;;20.50;64.50;;;;;;4978336;28;20023;-80
2021/07/09 04:59:00;;;;;;;5.85;4.20;;;20.50;64.50;;;;;;4961530;28;20208;-80
2021/07/09 05:01:26;;;;;;;5.65;4.15;;;20.50;64.50;;;;;;4978009;28;20034;-80
2021/07/09 05:03:52;;;;;;;5.38;3.90;;;20.50;64.50;;;;;;4977681;28;20030;-80
2021/07/09 05:06:17;;;;;;;5.03;3.92;;;20.50;64.60;;;;;;4961321;28;20040;-80
2021/07/09 05:08:43;;;;;;;5.25;3.92;;;20.40;64.50;;;;;;4977251;28;20042;-80
2021/07/09 05:11:09;;;;;;;5.93;4.07;;;20.40;64.60;;;;;;4978032;28;20100;-81
2021/07/09 05:13:38;;;;;;;5.35;4.07;;;20.40;64.60;;;;;;4961316;28;20485;-80
2021/07/09 05:16:05;;;;;;;5.47;3.95;;;20.40;64.60;;;;;;4961625;28;20115;-80
2021/07/09 05:18:31;;;;;;;5.50;4.07;;;20.40;64.70;;;;;;4961196;28;20561;-80
2021/07/09 05:20:57;;;;;;;4.93;3.78;;;20.50;64.70;;;;;;4993370;28;20149;-81
2021/07/09 05:23:23;;;;;;;4.88;3.90;;;20.40;64.70;;;;;;4977349;28;20080;-81
2021/07/09 05:25:49;;;;;;;5.40;3.88;;;20.40;64.70;;;;;;4977412;28;20034;-81
2021/07/09 05:28:14;;;;;;;5.72;4.22;;;20.40;64.80;;;;;;4977181;28;20524;-81
2021/07/09 05:30:40;;;;;;;6.07;4.53;;;20.40;64.70;;;;;;4993975;28;20169;-84
2021/07/09 05:33:08;;;;;;;5.45;4.30;;;20.40;64.70;;;;;;4977951;28;20156;-84
2021/07/09 05:35:36;;;;;;;5.70;4.18;;;20.40;64.70;;;;;;4993737;28;20026;-82
2021/07/09 05:38:03;;;;;;;6.50;4.32;;;20.40;64.80;;;;;;4961109;28;20026;-79
2021/07/09 05:40:29;;;;;;;5.53;4.32;;;20.40;64.70;;;;;;4992955;28;20505;-79
2021/07/09 05:42:55;;;;;;;5.68;4.25;;;20.40;64.80;;;;;;4994696;28;20026;-80
2021/07/09 05:45:21;;;;;;;5.20;4.15;;;20.40;64.80;;;;;;4976804;28;20089;-80
2021/07/09 05:47:46;;;;;;;5.43;4.03;;;20.40;64.80;;;;;;4976925;28;20018;-79
2021/07/09 05:50:12;;;;;;;5.72;4.43;;;20.40;64.90;;;;;;4994733;28;20422;-79
2021/07/09 05:52:38;;;;;;;5.55;4.22;;;20.40;64.80;;;;;;4993102;28;20554;-83
2021/07/09 05:55:05;;;;;;;5.93;4.55;;;20.40;64.90;;;;;;4961411;28;20037;-81
2021/07/09 05:57:31;;;;;;;5.20;3.92;;;20.40;64.90;;;;;;4994233;28;20100;-81
2021/07/09 05:59:58;;;;;;;5.30;3.80;;;20.40;64.90;;;;;;4960589;28;20130;-82
2021/07/09 06:02:23;;;;;;;5.03;3.85;;;20.40;64.90;;;;;;4960539;28;20076;-82
2021/07/09 06:04:49;;;;;;;5.93;4.03;;;20.40;64.90;;;;;;4994181;28;20030;-82
2021/07/09 06:07:15;;;;;;;6.25;4.60;;;20.40;65.00;;;;;;4977443;28;20495;-83
2021/07/09 06:09:41;;;;;;;5.57;4.25;;;20.30;64.90;;;;;;4960542;28;20039;-83
2021/07/09 06:12:07;;;;;;;5.72;4.20;;;20.40;65.00;;;;;;4976873;28;20049;-81
2021/07/09 06:14:33;;;;;;;5.60;3.92;;;20.40;65.00;;;;;;4976777;28;20030;-82
2021/07/09 06:16:59;;;;;;;5.15;3.92;;;20.40;65.00;;;;;;4992570;28;20117;-81
2021/07/09 06:19:24;;;;;;;5.13;3.83;;;20.40;65.00;;;;;;4960607;28;20034;-80
2021/07/09 06:21:50;;;;;;;5.95;4.32;;;20.40;65.00;;;;;;4977736;28;20359;-82
2021/07/09 06:24:17;;;;;;;5.50;3.88;;;20.40;65.00;;;;;;4976661;28;20026;-80
2021/07/09 06:26:43;;;;;;;5.63;4.30;;;20.40;65.00;;;;;;4993115;28;20031;-81
2021/07/09 06:29:09;;;;;;;5.50;3.70;;;20.40;65.00;;;;;;4976626;28;20026;-82
2021/07/09 06:31:35;;;;;;;4.60;3.58;;;20.40;65.00;;;;;;4961016;28;20442;-83
2021/07/09 06:34:00;;;;;;;5.05;3.70;;;20.40;64.90;;;;;;4976613;28;20035;-81
2021/07/09 06:36:26;;;;;;;4.47;3.38;;;20.40;64.90;;;;;;4976746;28;20501;-81
2021/07/09 06:38:52;;;;;;;4.25;3.15;;;20.40;64.90;;;;;;4994043;28;20456;-83
2021/07/09 06:41:18;;;;;;;4.13;3.13;;;20.40;64.90;;;;;;4960524;28;20482;-83
2021/07/09 06:43:44;;;;;;;4.72;3.33;;;20.40;64.90;;;;;;4976812;28;20121;-82
2021/07/09 06:46:10;;;;;;;4.30;2.92;;;20.40;64.90;;;;;;4993462;28;20031;-83
2021/07/09 06:48:36;;;;;;;4.25;3.10;;;20.40;64.90;;;;;;4992830;28;20042;-82
2021/07/09 06:51:02;;;;;;;4.13;3.05;;;20.40;64.90;;;;;;4976731;28;20034;-83
2021/07/09 06:53:28;;;;;;;3.92;2.90;;;20.40;64.80;;;;;;4979861;28;20122;-82
2021/07/09 06:55:54;;;;;;;4.05;3.00;;;20.40;64.80;;;;;;4979765;28;20034;-83
2021/07/09 06:58:20;;;;;;;3.92;2.83;;;20.40;64.80;;;;;;4996405;28;20018;-83
2021/07/09 07:00:46;;;;;;;4.40;2.90;;;20.40;64.80;;;;;;4979943;28;20050;-83
2021/07/09 07:03:11;;;;;;;3.75;2.67;;;20.40;64.80;;;;;;4980272;28;20105;-83
2021/07/09 07:05:37;;;;;;;4.78;3.08;;;20.40;64.80;;;;;;4963965;28;20434;-83
2021/07/09 07:08:23;;;;;;;3.75;3.00;;;20.40;64.80;;;;;;4980437;28;20360;-84
2021/07/09 07:10:51;;;;;;;3.65;2.58;;;20.40;64.90;;;;;;4996436;28;20038;-83
2021/07/09 07:13:21;;;;;;;4.30;3.08;;;20.40;64.70;;;;;;4996830;28;20026;-83
2021/07/09 07:15:47;;;;;;;3.72;2.65;;;20.40;64.80;;;;;;4947532;28;20030;-80
2021/07/09 07:18:13;;;;;;;3.20;2.50;;;20.40;64.80;;;;;;4963871;28;20054;-80
2021/07/09 07:20:41;;;;;;;3.80;2.60;;;20.40;64.80;;;;;;4995821;28;20386;-81
2021/07/09 07:23:08;;;;;;;3.40;2.63;;;20.50;64.80;;;;;;4997022;28;20054;-81
2021/07/09 07:25:35;;;;;;;3.83;2.63;;;20.40;64.80;;;;;;4995956;28;20031;-82
2021/07/09 07:28:01;;;;;;;3.53;2.70;;;20.50;64.80;;;;;;4979677;28;20149;-81
2021/07/09 07:30:28;;;;;;;3.88;2.90;;;20.50;64.80;;;;;;4979472;28;20077;-81
2021/07/09 07:32:54;;;;;;;4.13;2.88;;;20.50;64.80;;;;;;4979334;28;20474;-81
2021/07/09 07:35:21;;;;;;;3.15;2.33;;;20.50;64.80;;;;;;4979294;28;20034;-82
2021/07/09 07:37:47;;;;;;;3.40;2.60;;;20.50;65.40;;;;;;4996854;28;20462;-81
2021/07/09 07:40:13;;;;;;;3.28;2.47;;;20.60;64.80;;;;;;4997322;28;20331;-82
2021/07/09 07:42:39;;;;;;;3.58;2.75;;;20.60;64.70;;;;;;4963242;28;20037;-83
2021/07/09 07:45:05;;;;;;;3.03;2.40;;;20.60;64.70;;;;;;4995850;28;20453;-85
2021/07/09 07:47:31;;;;;;;3.85;2.75;;;20.70;65.30;;;;;;4979178;28;20030;-81
2021/07/09 07:49:57;;;;;;;3.35;2.38;;;20.70;64.70;;;;;;4979786;28;20376;-82
2021/07/09 07:52:23;;;;;;;3.80;2.70;;;20.70;64.60;;;;;;4996510;28;20030;-82
2021/07/09 07:54:49;;;;;;;3.45;2.55;;;20.80;64.60;;;;;;4979180;28;20041;-81
2021/07/09 07:57:15;;;;;;;3.78;2.70;;;20.80;64.60;;;;;;4996356;28;20574;-82
2021/07/09 07:59:45;;;;;;;3.72;2.60;;;20.80;64.50;;;;;;4978794;28;20058;-81
2021/07/09 08:02:11;;;;;;;3.47;2.60;;;20.90;64.50;;;;;;4979359;28;20046;-82
2021/07/09 08:04:37;;;;;;;3.30;2.50;;;20.90;64.40;;;;;;4996017;28;20034;-82
2021/07/09 08:07:03;;;;;;;2.72;2.35;;;21.00;64.40;;;;;;4979481;28;20370;-82
2021/07/09 08:09:29;;;;;;;2.63;2.20;;;21.00;64.30;;;;;;4979305;28;20030;-82
2021/07/09 08:11:56;;;;;;;3.85;2.70;;;21.10;64.20;;;;;;4962728;28;20118;-82
2021/07/09 08:14:22;;;;;;;2.83;2.35;;;21.20;64.20;;;;;;4978430;28;20082;-83
2021/07/09 08:16:51;;;;;;;3.58;2.40;;;21.20;64.10;;;;;;4978886;28;20030;-83
2021/07/09 08:19:21;;;;;;;3.50;2.28;;;21.30;64.10;;;;;;4978994;28;20043;-82
2021/07/09 08:21:48;;;;;;;3.63;2.50;;;21.30;64.20;;;;;;4994813;28;20081;-82
2021/07/09 08:24:18;;;;;;;3.03;2.25;;;21.40;63.90;;;;;;4978397;28;20046;-82
2021/07/09 08:26:44;;;;;;;2.38;2.08;;;21.40;63.80;;;;;;4978369;28;20061;-83
2021/07/09 08:29:10;;;;;;;2.90;2.35;;;21.50;63.70;;;;;;4978011;28;20098;-82
2021/07/09 08:31:37;;;;;;;3.55;2.63;;;21.60;63.60;;;;;;4978632;28;20042;-81
2021/07/09 08:34:03;;;;;;;2.08;1.88;;;21.70;63.60;;;;;;4978111;28;20524;-80
2021/07/09 08:36:30;;;;;;;2.38;2.13;;;21.80;63.50;;;;;;4978158;28;20113;-82
2021/07/09 08:38:56;;;;;;;3.97;2.40;;;21.80;63.30;;;;;;4978838;28;20022;-82
2021/07/09 08:41:22;;;;;;;2.90;2.10;;;21.90;63.40;;;;;;4977553;28;20062;-82
2021/07/09 08:43:48;;;;;;;3.30;2.50;;;22.00;63.30;;;;;;4995424;28;20467;-81
2021/07/09 08:46:15;;;;;;;3.05;2.10;;;22.10;63.20;;;;;;4995252;28;20053;-81
2021/07/09 08:48:42;;;;;;;3.30;2.20;;;22.10;63.10;;;;;;4978286;28;20573;-81
2021/07/09 08:51:09;;;;;;;3.28;2.30;;;22.20;63.00;;;;;;4961966;28;20057;-81
2021/07/09 08:53:35;;;;;;;3.63;2.50;;;22.30;62.90;;;;;;4977647;28;20475;-82
2021/07/09 08:56:01;;;;;;;2.88;2.30;;;22.30;62.90;;;;;;4978958;28;20045;-81
2021/07/09 08:58:27;;;;;;;2.55;2.15;;;22.40;62.80;;;;;;4978460;28;20042;-81
2021/07/09 09:00:53;;;;;;;3.03;2.28;;;22.50;62.70;;;;;;4977678;28;20054;-82
2021/07/09 09:03:24;;;;;;;3.38;2.25;;;22.60;62.70;;;;;;4977289;28;20046;-81
2021/07/09 09:05:51;;;;;;;2.45;2.15;;;22.70;62.60;;;;;;4995174;28;20105;-82
2021/07/09 09:08:20;;;;;;;2.85;2.25;;;22.70;62.50;;;;;;4995519;28;20031;-82
2021/07/09 09:10:49;;;;;;;2.92;2.10;;;22.80;62.40;;;;;;4961697;28;20378;-81
2021/07/09 09:13:23;;;;;;;2.75;2.20;;;22.90;62.40;;;;;;4977537;28;20054;-82
2021/07/09 09:16:13;;;;;;;2.60;1.98;;;23.00;62.30;;;;;;4976775;28;20030;-81
2021/07/09 09:18:47;;;;;;;2.80;2.00;;;23.10;62.30;;;;;;4995503;28;20038;-81
2021/07/09 09:21:21;;;;;;;2.58;1.98;;;23.20;62.10;;;;;;4994540;28;20030;-82
2021/07/09 09:23:53;;;;;;;2.80;2.22;;;23.20;62.00;;;;;;4993599;28;20466;-82
2021/07/09 09:26:40;;;;;;;2.22;1.88;;;23.30;61.90;;;;;;4960865;28;20115;-81
2021/07/09 09:29:09;;;;;;;2.55;1.90;;;23.40;62.00;;;;;;4993498;28;20034;-82
2021/07/09 09:31:36;;;;;;;2.97;2.10;;;23.50;61.70;;;;;;4976826;28;20061;-82
2021/07/09 09:34:03;;;;;;;2.80;1.90;;;23.60;61.70;;;;;;4994608;28;20061;-81
2021/07/09 09:36:30;;;;;;;3.05;2.17;;;23.60;61.70;;;;;;4977475;28;20031;-81
2021/07/09 09:38:59;;;;;;;2.67;2.05;;;23.70;61.60;;;;;;4960943;28;20057;-81
2021/07/09 09:41:25;;;;;;;2.40;1.88;;;23.80;61.60;;;;;;4961338;28;20030;-82
2021/07/09 09:43:51;;;;;;;3.13;2.30;;;23.90;61.40;;;;;;4977019;28;20057;-81
2021/07/09 09:46:25;;;;;;;3.38;2.50;;;24.00;61.40;;;;;;4993426;28;20065;-82
2021/07/09 09:48:51;;;;;;;2.63;2.15;;;24.00;61.40;;;;;;4961112;28;20050;-79
2021/07/09 09:51:27;;;;;;;2.88;2.20;;;24.10;61.30;;;;;;4993220;28;20488;-81
2021/07/09 09:53:56;;;;;;;3.50;2.45;;;24.20;61.30;;;;;;4977482;28;20042;-80
2021/07/09 09:56:46;;;;;;;3.25;2.13;;;24.30;61.80;;;;;;4961028;28;20474;-81
2021/07/09 09:59:23;;;;;;;3.25;2.50;;;24.40;61.20;;;;;;4976524;28;20125;-81
2021/07/09 10:01:57;;;;;;;3.80;2.50;;;24.40;60.90;;;;;;4977273;28;20070;-81
2021/07/09 10:04:24;;;;;;;;;;;24.50;60.90;;;;;;4977235;28;20026;-81
2021/07/09 10:06:51;;;;;;;2.45;2.13;;;24.60;60.80;;;;;;4993983;28;19906;-80
2021/07/09 10:09:18;;;;;;;3.10;2.33;;;24.70;60.70;;;;;;4960429;28;20522;-81
2021/07/09 10:11:45;;;;;;;3.55;2.75;;;24.70;60.80;;;;;;4960827;28;20471;-80
2021/07/09 10:14:12;;;;;;;3.55;2.50;;;24.80;60.80;;;;;;4993600;28;20065;-79
2021/07/09 10:16:40;;;;;;;3.58;2.58;;;24.90;60.80;;;;;;4976564;28;20033;-79
2021/07/09 10:19:10;;;;;;;4.32;2.95;;;25.00;60.80;;;;;;4993021;28;20092;-82
2021/07/09 10:21:40;;;;;;;3.35;2.53;;;25.00;60.80;;;;;;4976936;28;20034;-81
2021/07/09 10:24:08;;;;;;;3.25;2.53;;;25.10;60.70;;;;;;4992884;28;20125;-80
2021/07/09 10:26:47;;;;;;;3.72;2.67;;;25.20;60.70;;;;;;4994148;28;20054;-82
2021/07/09 10:29:16;;;;;;;4.18;2.90;;;25.20;60.60;;;;;;4981189;28;20034;-80
2021/07/09 10:31:44;;;;;;;3.60;2.72;;;25.30;60.50;;;;;;4980371;28;20026;-81
2021/07/09 10:34:29;;;;;;;4.38;3.00;;;25.40;60.50;;;;;;4997800;28;20049;-81
2021/07/09 10:37:01;;;;;;;3.88;2.92;;;25.40;60.60;;;;;;4996454;28;20034;-81
2021/07/09 10:39:51;;;;;;;3.83;2.83;;;25.50;60.40;;;;;;4964339;28;20045;-81
2021/07/09 10:42:30;;;;;;;5.53;3.38;;;25.50;60.40;;;;;;4974882;28;20050;-79
2021/07/09 10:45:16;;;;;;;3.63;2.90;;;25.60;60.30;;;;;;4997942;28;20113;-80
2021/07/09 10:47:46;;;;;;;4.40;3.10;;;25.60;60.30;;;;;;4980314;28;20034;-80
2021/07/09 10:50:34;;;;;;;4.80;3.47;;;25.70;60.30;;;;;;4980329;28;20042;-80
2021/07/09 10:53:23;;;;;;;4.15;2.85;;;25.70;60.30;;;;;;4979912;28;20498;-81
2021/07/09 10:56:02;;;;;;;4.35;3.50;;;25.80;60.30;;;;;;4997651;28;20483;-81
2021/07/09 10:58:34;;;;;;;4.38;3.15;;;25.80;60.20;;;;;;4979712;28;20049;-80
2021/07/09 11:01:17;;;;;;;4.45;3.20;;;25.90;60.10;;;;;;4963551;28;20046;-81
2021/07/09 11:04:06;;;;;;;4.82;3.35;;;25.90;60.10;;;;;;4996011;28;20030;-81
2021/07/09 11:06:31;;;;;;;4.25;2.92;;;26.00;60.00;;;;;;4996645;28;20038;-81
2021/07/09 11:09:08;;;;;;;4.63;3.58;;;26.00;59.90;;;;;;4980171;28;20395;-81
2021/07/09 11:11:49;;;;;;;4.43;3.60;;;26.00;60.70;;;;;;4979772;28;20430;-81
2021/07/09 11:14:39;;;;;;;4.25;3.45;;;26.10;59.90;;;;;;4980685;28;20060;-81
2021/07/09 11:17:21;;;;;;;4.35;3.20;;;26.10;60.00;;;;;;4980010;28;20125;-81
2021/07/09 11:19:47;;;;;;;4.32;3.22;;;26.10;59.90;;;;;;4997402;28;20041;-81
2021/07/09 11:22:13;;;;;;;4.72;3.33;;;26.20;59.80;;;;;;4979440;28;20031;-82
2021/07/09 11:24:53;;;;;;;3.65;3.25;;;26.20;59.90;;;;;;4979510;28;20045;-80
2021/07/09 11:27:25;;;;;;;4.57;3.50;;;26.20;59.90;;;;;;4995834;28;20030;-79
2021/07/09 11:29:56;;;;;;;4.90;3.50;;;26.20;59.80;;;;;;4963400;28;20406;-81
2021/07/09 11:32:23;;;;;;;4.32;3.55;;;26.30;59.90;;;;;;4997222;28;20489;-80
2021/07/09 11:34:50;;;;;;;4.43;3.13;;;26.30;59.90;;;;;;4980286;28;20049;-80
2021/07/09 11:37:17;;;;;;;3.90;3.08;;;26.30;59.90;;;;;;4994839;28;20061;-81
2021/07/09 11:39:44;;;;;;;3.80;3.22;;;26.30;59.90;;;;;;4995202;28;20045;-81
2021/07/09 11:42:17;;;;;;;5.22;3.65;;;26.40;60.00;;;;;;4979645;28;20057;-81
2021/07/09 11:44:45;;;;;;;5.10;3.88;;;26.40;60.00;;;;;;4996133;28;20052;-81
2021/07/09 11:47:28;;;;;;;4.75;3.72;;;26.40;60.00;;;;;;4978596;28;20026;-82
2021/07/09 11:49:58;;;;;;;4.68;3.38;;;26.40;60.20;;;;;;4979098;28;20061;-82
2021/07/09 11:52:26;;;;;;;5.35;3.80;;;26.40;60.10;;;;;;4979154;28;20484;-81
2021/07/09 11:54:55;;;;;;;4.55;3.47;;;26.40;60.10;;;;;;4979459;28;20057;-81
2021/07/09 11:57:24;;;;;;;4.90;3.20;;;26.50;60.20;;;;;;4978849;28;20046;-82
2021/07/09 11:59:52;;;;;;;4.60;3.60;;;26.50;60.30;;;;;;4974832;28;20051;-82
2021/07/09 12:02:20;;;;;;;3.83;3.08;;;26.50;60.30;;;;;;4975573;28;20034;-81
2021/07/09 12:04:51;;;;;;;3.78;3.15;;;26.50;60.30;;;;;;4975520;28;20093;-81
2021/07/09 12:07:27;;;;;;;4.47;3.47;;;26.50;60.40;;;;;;4959594;28;20122;-83
2021/07/09 12:09:54;;;;;;;4.40;3.17;;;26.50;60.40;;;;;;4959747;28;20435;-82
2021/07/09 12:12:21;;;;;;;4.53;3.42;;;26.50;60.40;;;;;;4975158;28;20023;-81
2021/07/09 12:14:57;;;;;;;4.30;3.20;;;26.50;60.40;;;;;;4975483;28;20411;-80
2021/07/09 12:17:24;;;;;;;4.28;3.30;;;26.60;60.60;;;;;;4977194;28;20023;-81
2021/07/09 12:20:11;;;;;;;3.65;3.03;;;26.60;60.60;;;;;;4975191;28;20204;-82
2021/07/09 12:22:50;;;;;;;4.32;3.13;;;26.60;60.70;;;;;;4975380;28;20054;-81
2021/07/09 12:25:22;;;;;;;3.33;2.72;;;26.60;60.60;;;;;;4975275;28;20054;-83
2021/07/09 12:27:48;;;;;;;4.20;3.22;;;26.60;60.60;;;;;;4975508;28;20031;-82
2021/07/09 12:30:22;;;;;;;4.40;3.10;;;26.60;60.60;;;;;;4942995;28;20101;-84
2021/07/09 12:32:50;;;;;;;4.50;3.33;;;26.60;60.60;;;;;;4975240;28;20038;-82
2021/07/09 12:35:19;;;;;;;3.40;2.88;;;26.70;60.60;;;;;;4976307;28;20030;-83
2021/07/09 12:37:59;;;;;;;4.00;3.05;;;26.60;60.60;;;;;;4975186;28;20471;-83
2021/07/09 12:40:46;;;;;;;3.92;3.17;;;26.70;60.70;;;;;;4975095;28;20406;-82
2021/07/09 12:43:24;;;;;;;4.22;3.15;;;26.70;60.80;;;;;;4975646;28;20030;-82
2021/07/09 12:46:06;;;;;;;3.65;2.97;;;26.60;60.70;;;;;;4959674;28;20101;-84
2021/07/09 12:48:44;;;;;;;4.00;3.03;;;26.70;60.70;;;;;;4974823;28;20030;-84
2021/07/09 12:51:43;;;;;;;4.63;2.90;;;26.70;60.60;;;;;;4974544;28;20027;-85
2021/07/09 12:54:13;;;;;;;3.83;2.85;;;26.70;60.70;;;;;;4956555;28;20049;-83